Startpagina
METAR-TAF:

METAR-TAF

Vliegvelden :

Mfuwe, Zambia

breedte: 13-15-32S, lengte: 031-56-12E, hoogte: 573 m

METAR: ontbreekt

Tijdstip: 22:43 (20:43 UTC)

Verwachting

Dit bericht is 4 uur en het 43 minuten geleden gemaakt, om 16:00 UTC
Verwachting geldig van 24 om 18 UTC tot 25 om 24 UTC
Wind 3 kt uit variabele richting
Zicht 10 km of meer
geen wolken onder 1500 m en geen cumulonimbus
Wijzigt naar
van 25 om 04 UTC tot 25 om 06 UTC
Wind 10 kt uit het oostzuidoosten
Zicht 10 km of meer
Weinig wolken op 2000 ft
Wijzigt naar
van 25 om 07 UTC tot 25 om 09 UTC
Gebroken wolken op 3500 ft
Wijzigt naar
van 25 om 12 UTC tot 25 om 14 UTC
Gebroken wolken op 4500 ft, Stapelwolken.

TAF: FLMF 241600Z 2418/2524 VRB03KT CAVOK BECMG 2504/2506 11010KT 9999 FEW020 BECMG 2507/2509 BKN035 BECMG 2512/2514 BKN045TCU

Waarnemingen en weersverwachtingen van meer dan 4000 vliegvelden (METAR en TAF).

De beschikbare stations zijn de gele en rode punten op de kaart.

Ga met uw muis naar het station om de naam te zien.

Klik dan om waarnemingen en weersverwachtingen te zien.

kaart wijzigen: klik op de groene knoppen met een zwart kruis om in te zoomen, op de groene knop met een streepje om uit te zoomen of op de groene pijlen voor aangrenzende kaarten.


METAR-TAF: